createdAt,value
2018-11-06T00:00:01.639Z,99.99
2018-11-06T00:00:27.766Z,99.8
2018-11-06T00:00:53.907Z,99.99
2018-11-06T00:01:20.068Z,99.99
2018-11-06T00:01:46.199Z,99.99
2018-11-06T00:02:12.327Z,99.99
2018-11-06T00:02:38.456Z,99.99
2018-11-06T00:03:04.586Z,99.99
2018-11-06T00:03:30.711Z,99.99
2018-11-06T00:03:56.836Z,99.99
2018-11-06T00:04:22.996Z,99.99
2018-11-06T00:04:49.137Z,99.99
2018-11-06T00:05:15.265Z,99.99
2018-11-06T00:05:41.399Z,99.99
2018-11-06T00:06:07.530Z,99.99
2018-11-06T00:06:33.662Z,99.99
2018-11-06T00:06:59.794Z,99.99
2018-11-06T00:07:25.929Z,99.99
2018-11-06T00:07:52.066Z,99.99
2018-11-06T00:08:18.194Z,99.99
2018-11-06T00:08:44.327Z,99.99
2018-11-06T00:09:10.486Z,99.99
2018-11-06T00:09:36.587Z,99.99
2018-11-06T00:10:02.740Z,99.99
2018-11-06T00:10:28.903Z,99.99
2018-11-06T00:10:55.064Z,99.99
2018-11-06T00:11:21.237Z,99.99
2018-11-06T00:11:47.351Z,99.99
2018-11-06T00:12:13.492Z,99.99
2018-11-06T00:12:39.626Z,99.99
2018-11-06T00:13:05.807Z,99.99
2018-11-06T00:13:31.944Z,99.99
2018-11-06T00:13:58.084Z,99.99
2018-11-06T00:14:24.223Z,99.99
2018-11-06T00:14:50.363Z,99.99
2018-11-06T00:15:16.492Z,99.99
2018-11-06T00:15:42.629Z,99.99
2018-11-06T00:16:08.763Z,99.99
2018-11-06T00:16:34.910Z,99.99
2018-11-06T00:17:01.052Z,99.99
2018-11-06T00:17:27.198Z,99.99
2018-11-06T00:17:53.357Z,99.99
2018-11-06T00:18:19.491Z,99.99
2018-11-06T00:18:45.620Z,99.99
2018-11-06T00:19:11.757Z,99.99
2018-11-06T00:19:37.885Z,99.99
2018-11-06T00:20:04.018Z,99.99
2018-11-06T00:20:30.158Z,99.99
2018-11-06T00:20:56.315Z,99.99
2018-11-06T00:21:22.455Z,99.99
2018-11-06T00:21:48.586Z,99.99
2018-11-06T00:22:14.760Z,99.99
2018-11-06T00:22:40.893Z,99.99
2018-11-06T00:23:07.034Z,99.99
2018-11-06T00:23:33.183Z,99.99
2018-11-06T00:23:59.364Z,99.99
2018-11-06T00:24:25.501Z,99.99
2018-11-06T00:24:51.640Z,99.99
2018-11-06T00:25:17.788Z,99.99
2018-11-06T00:25:43.950Z,99.99
2018-11-06T00:26:10.084Z,99.99
2018-11-06T00:26:36.207Z,99.99
2018-11-06T00:27:02.344Z,99.99
2018-11-06T00:27:28.470Z,99.99
2018-11-06T00:27:54.609Z,99.99
2018-11-06T00:28:20.741Z,99.99
2018-11-06T00:28:46.898Z,99.99
2018-11-06T00:29:13.032Z,99.99
2018-11-06T00:29:39.168Z,99.99
2018-11-06T00:30:05.305Z,99.99
2018-11-06T00:30:31.441Z,99.99
2018-11-06T00:30:57.572Z,99.99
2018-11-06T00:31:23.753Z,99.99
2018-11-06T00:31:49.888Z,99.99
2018-11-06T00:32:16.012Z,99.99
2018-11-06T00:32:42.155Z,99.99
2018-11-06T00:33:08.303Z,99.99
2018-11-06T00:33:34.453Z,99.99
2018-11-06T00:34:00.627Z,99.99
2018-11-06T00:34:26.748Z,99.99
2018-11-06T00:34:52.873Z,99.99
2018-11-06T00:35:19.000Z,99.8
2018-11-06T00:35:45.135Z,99.99
2018-11-06T00:36:11.301Z,99.99
2018-11-06T00:36:37.433Z,99.99
2018-11-06T00:37:03.564Z,99.99
2018-11-06T00:37:29.703Z,99.71
2018-11-06T00:37:55.835Z,99.9
2018-11-06T00:38:21.984Z,99.42
2018-11-06T00:38:48.114Z,99.27
2018-11-06T00:39:14.248Z,99.56
2018-11-06T00:39:40.376Z,99.37
2018-11-06T00:40:06.508Z,99.95
2018-11-06T00:40:32.637Z,99.95
2018-11-06T00:40:58.770Z,99.85
2018-11-06T00:41:24.898Z,99.95
2018-11-06T00:41:51.037Z,99.99
2018-11-06T00:42:17.172Z,99.99
2018-11-06T00:42:43.300Z,99.99
2018-11-06T00:43:09.435Z,99.95
2018-11-06T00:43:35.564Z,99.99
2018-11-06T00:44:01.697Z,99.99
2018-11-06T00:44:27.833Z,99.99
2018-11-06T00:44:53.964Z,99.99
2018-11-06T00:45:20.096Z,99.99
2018-11-06T00:45:46.230Z,99.99
2018-11-06T00:46:12.380Z,99.99
2018-11-06T00:46:38.509Z,99.99
2018-11-06T00:47:04.644Z,99.99
2018-11-06T00:47:30.770Z,99.8
2018-11-06T00:47:56.930Z,99.99
2018-11-06T00:48:23.060Z,99.99
2018-11-06T00:48:49.187Z,99.8
2018-11-06T00:49:15.313Z,99.99
2018-11-06T00:49:41.450Z,99.99
2018-11-06T00:50:07.581Z,99.9
2018-11-06T00:50:33.715Z,99.61
2018-11-06T00:50:59.867Z,99.61
2018-11-06T00:51:25.996Z,99.9
2018-11-06T00:51:52.144Z,99.61
2018-11-06T00:52:18.299Z,99.75
2018-11-06T00:52:44.445Z,99.99
2018-11-06T00:53:10.590Z,99.75
2018-11-06T00:53:36.727Z,99.71
2018-11-06T00:54:02.857Z,99.75
2018-11-06T00:54:29.001Z,99.99
2018-11-06T00:54:55.150Z,99.75
2018-11-06T00:55:21.303Z,99.95
2018-11-06T00:55:47.440Z,99.75
2018-11-06T00:56:13.571Z,99.37
2018-11-06T00:56:39.703Z,99.95
2018-11-06T00:57:05.842Z,99.85
2018-11-06T00:57:31.975Z,99.99
2018-11-06T00:57:58.131Z,99.85
2018-11-06T00:58:24.288Z,99.85
2018-11-06T00:58:50.458Z,99.56
2018-11-06T00:59:16.846Z,99.37
2018-11-06T00:59:42.974Z,99.75
2018-11-06T01:00:09.261Z,99.75
2018-11-06T01:00:35.409Z,99.52
2018-11-06T01:01:01.544Z,99.85
2018-11-06T01:01:27.685Z,99.71
2018-11-06T01:01:53.807Z,99.61
2018-11-06T01:02:19.941Z,99.85
2018-11-06T01:02:46.085Z,99.66
2018-11-06T01:03:12.237Z,99.95
2018-11-06T01:03:38.384Z,99.66
2018-11-06T01:04:04.494Z,99.37
2018-11-06T01:04:30.648Z,99.56
2018-11-06T01:04:56.783Z,99.66
2018-11-06T01:05:22.935Z,99.46
2018-11-06T01:05:49.094Z,99.99
2018-11-06T01:06:15.276Z,99.37
2018-11-06T01:06:41.405Z,99.95
2018-11-06T01:07:07.606Z,99.99
2018-11-06T01:07:33.757Z,99.75
2018-11-06T01:07:59.894Z,99.99
2018-11-06T01:08:26.040Z,99.99
2018-11-06T01:08:52.187Z,99.99
2018-11-06T01:09:18.319Z,99.99
2018-11-06T01:09:44.454Z,99.99
2018-11-06T01:10:10.590Z,99.99
2018-11-06T01:10:36.724Z,99.99
2018-11-06T01:11:02.857Z,99.9
2018-11-06T01:11:28.991Z,99.8
2018-11-06T01:11:55.129Z,99.71
2018-11-06T01:12:21.264Z,99.8
2018-11-06T01:12:47.421Z,99.8
2018-11-06T01:13:13.577Z,99.8
2018-11-06T01:13:39.711Z,99.9
2018-11-06T01:14:05.841Z,99.99
2018-11-06T01:14:31.975Z,99.99
2018-11-06T01:14:58.103Z,99.99
2018-11-06T01:15:24.237Z,99.99
2018-11-06T01:15:50.369Z,99.99
2018-11-06T01:16:16.505Z,99.99
2018-11-06T01:16:42.634Z,99.99
2018-11-06T01:17:08.764Z,99.99
2018-11-06T01:17:34.892Z,99.99
2018-11-06T01:18:01.025Z,99.99
2018-11-06T01:18:27.158Z,99.99
2018-11-06T01:18:53.321Z,99.99
2018-11-06T01:19:19.452Z,99.99
2018-11-06T01:19:45.591Z,99.99
2018-11-06T01:20:11.726Z,99.99
2018-11-06T01:20:37.890Z,99.99
2018-11-06T01:21:04.045Z,99.99
2018-11-06T01:21:30.200Z,99.99
2018-11-06T01:21:56.375Z,99.99
2018-11-06T01:22:22.508Z,99.99
2018-11-06T01:22:48.667Z,99.99
2018-11-06T01:23:14.824Z,99.8
2018-11-06T01:23:40.985Z,99.99
2018-11-06T01:24:07.119Z,99.99
2018-11-06T01:24:33.274Z,99.99
2018-11-06T01:24:59.429Z,99.99
2018-11-06T01:25:25.609Z,99.61
2018-11-06T01:25:51.740Z,99.71
2018-11-06T01:26:17.887Z,99.99
2018-11-06T01:26:44.020Z,99.8
2018-11-06T01:27:10.170Z,99.52
2018-11-06T01:27:36.307Z,99.71
2018-11-06T01:28:02.445Z,99.23
2018-11-06T01:28:28.620Z,98.94
2018-11-06T01:28:54.710Z,99.13
2018-11-06T01:29:20.844Z,99.32
2018-11-06T01:29:46.976Z,99.42
2018-11-06T01:30:13.112Z,98.75
2018-11-06T01:30:39.242Z,98.85
2018-11-06T01:31:05.367Z,98.47
2018-11-06T01:31:31.526Z,98.56
2018-11-06T01:31:57.683Z,99.13
2018-11-06T01:32:23.816Z,98.56
2018-11-06T01:32:49.957Z,98.47
2018-11-06T01:33:16.111Z,98.47
2018-11-06T01:33:42.267Z,98.47
2018-11-06T01:34:08.400Z,98.37
2018-11-06T01:34:34.532Z,98.18
2018-11-06T01:35:00.684Z,98.37
2018-11-06T01:35:26.821Z,98.75
2018-11-06T01:35:52.947Z,98.18
2018-11-06T01:36:19.120Z,97.89
2018-11-06T01:36:45.239Z,98.66
2018-11-06T01:37:11.393Z,97.89
2018-11-06T01:37:37.554Z,98.66
2018-11-06T01:38:03.688Z,98.47
2018-11-06T01:38:29.819Z,98.56
2018-11-06T01:38:55.956Z,98.18
2018-11-06T01:39:22.092Z,98.56
2018-11-06T01:39:48.249Z,98.94
2018-11-06T01:40:14.375Z,99.13
2018-11-06T01:40:40.512Z,99.13
2018-11-06T01:41:06.646Z,99.04
2018-11-06T01:41:32.777Z,98.75
2018-11-06T01:41:58.907Z,99.13
2018-11-06T01:42:25.034Z,99.04
2018-11-06T01:42:51.171Z,98.75
2018-11-06T01:43:17.307Z,98.85
2018-11-06T01:43:43.440Z,99.23
2018-11-06T01:44:09.573Z,98.75
2018-11-06T01:44:35.707Z,98.94
2018-11-06T01:45:01.863Z,98.47
2018-11-06T01:45:28.019Z,98.18
2018-11-06T01:45:54.156Z,98.47
2018-11-06T01:46:20.320Z,98.08
2018-11-06T01:46:46.445Z,98.08
2018-11-06T01:47:12.605Z,98.42
2018-11-06T01:47:38.756Z,98.37
2018-11-06T01:48:04.895Z,98.13
2018-11-06T01:48:31.029Z,98.13
2018-11-06T01:48:57.155Z,98.37
2018-11-06T01:49:23.313Z,98.42
2018-11-06T01:49:49.470Z,97.51
2018-11-06T01:50:15.605Z,97.71
2018-11-06T01:50:41.734Z,97.71
2018-11-06T01:51:07.873Z,97.71
2018-11-06T01:51:33.999Z,97.71
2018-11-06T01:52:00.138Z,97.42
2018-11-06T01:52:26.268Z,97.89
2018-11-06T01:52:52.397Z,97.51
2018-11-06T01:53:18.533Z,97.51
2018-11-06T01:53:44.665Z,97.51
2018-11-06T01:54:10.801Z,97.89
2018-11-06T01:54:36.952Z,98.18
2018-11-06T01:55:03.084Z,98.18
2018-11-06T01:55:29.217Z,98.27
2018-11-06T01:55:55.367Z,98.27
2018-11-06T01:56:21.495Z,97.71
2018-11-06T01:56:47.625Z,97.51
2018-11-06T01:57:13.745Z,97.42
2018-11-06T01:57:39.911Z,97.71
2018-11-06T01:58:06.091Z,97.8
2018-11-06T01:58:32.232Z,97.71
2018-11-06T01:58:58.385Z,97.03
2018-11-06T01:59:24.514Z,97.71
2018-11-06T01:59:50.648Z,97.42
2018-11-06T02:00:16.782Z,97.13
2018-11-06T02:00:42.916Z,97.03
2018-11-06T02:01:09.045Z,97.03
2018-11-06T02:01:35.168Z,97.03
2018-11-06T02:02:01.303Z,97.32
2018-11-06T02:02:27.433Z,96.94
2018-11-06T02:02:53.561Z,97.27
2018-11-06T02:03:19.718Z,97.27
2018-11-06T02:03:45.876Z,97.42
2018-11-06T02:04:12.009Z,97.22
2018-11-06T02:04:38.168Z,97.32
2018-11-06T02:05:04.354Z,97.42
2018-11-06T02:05:30.471Z,97.13
2018-11-06T02:05:56.619Z,97.22
2018-11-06T02:06:22.751Z,97.32
2018-11-06T02:06:48.919Z,97.13
2018-11-06T02:07:15.076Z,97.13
2018-11-06T02:07:41.201Z,97.51
2018-11-06T02:08:07.344Z,97.51
2018-11-06T02:08:33.474Z,97.71
2018-11-06T02:08:59.632Z,97.61
2018-11-06T02:09:25.786Z,97.71
2018-11-06T02:09:51.943Z,97.42
2018-11-06T02:10:18.076Z,97.32
2018-11-06T02:10:44.232Z,97.8
2018-11-06T02:11:10.368Z,98.08
2018-11-06T02:11:36.496Z,98.18
2018-11-06T02:12:02.625Z,98.56
2018-11-06T02:12:28.796Z,98.66
2018-11-06T02:12:54.921Z,98.85
2018-11-06T02:13:21.084Z,99.23
2018-11-06T02:13:47.213Z,98.85
2018-11-06T02:14:13.388Z,99.23
2018-11-06T02:14:39.518Z,99.04
2018-11-06T02:15:05.685Z,99.23
2018-11-06T02:15:31.778Z,98.66
2018-11-06T02:15:57.935Z,99.04
2018-11-06T02:16:24.066Z,98.66
2018-11-06T02:16:50.197Z,98.56
2018-11-06T02:17:16.333Z,98.37
2018-11-06T02:17:42.464Z,98.37
2018-11-06T02:18:08.591Z,98.37
2018-11-06T02:18:34.726Z,98.94
2018-11-06T02:19:00.862Z,98.94
2018-11-06T02:19:26.990Z,99.04
2018-11-06T02:19:53.164Z,98.47
2018-11-06T02:20:19.321Z,98.47
2018-11-06T02:20:45.460Z,98.66
2018-11-06T02:21:11.606Z,97.89
2018-11-06T02:21:37.738Z,98.08
2018-11-06T02:22:03.870Z,98.37
2018-11-06T02:22:30.001Z,98.08
2018-11-06T02:22:56.133Z,97.89
2018-11-06T02:23:22.268Z,97.99
2018-11-06T02:23:48.419Z,98.08
2018-11-06T02:24:14.548Z,98.18
2018-11-06T02:24:40.686Z,98.08
2018-11-06T02:25:06.867Z,98.08
2018-11-06T02:25:32.998Z,98.08
2018-11-06T02:25:59.125Z,97.71
2018-11-06T02:26:25.265Z,98.9
2018-11-06T02:26:51.398Z,98.47
2018-11-06T02:27:17.527Z,98.51
2018-11-06T02:27:43.659Z,98.8
2018-11-06T02:28:09.790Z,98.7
2018-11-06T02:28:35.926Z,99.18
2018-11-06T02:29:02.060Z,99.18
2018-11-06T02:29:28.204Z,98.99
2018-11-06T02:29:54.342Z,98.9
2018-11-06T02:30:20.501Z,99.18
2018-11-06T02:30:46.600Z,99.23
2018-11-06T02:31:12.797Z,99.32
2018-11-06T02:31:38.946Z,98.99
2018-11-06T02:32:05.094Z,98.94
2018-11-06T02:32:31.386Z,99.13
2018-11-06T02:32:57.390Z,98.9
2018-11-06T02:33:23.538Z,99.08
2018-11-06T02:33:49.665Z,98.7
2018-11-06T02:34:15.825Z,98.7
2018-11-06T02:34:41.954Z,98.61
2018-11-06T02:35:08.094Z,98.99
2018-11-06T02:35:34.252Z,98.7
2018-11-06T02:36:00.384Z,99.27
2018-11-06T02:36:26.537Z,99.18
2018-11-06T02:36:52.686Z,99.18
2018-11-06T02:37:18.821Z,99.18
2018-11-06T02:37:44.985Z,99.46
2018-11-06T02:38:11.163Z,99.75
2018-11-06T02:38:37.317Z,99.37
2018-11-06T02:39:03.477Z,99.75
2018-11-06T02:39:29.630Z,99.95
2018-11-06T02:39:55.812Z,99.75
2018-11-06T02:40:21.943Z,99.75
2018-11-06T02:40:48.082Z,99.75
2018-11-06T02:41:14.253Z,99.75
2018-11-06T02:41:40.389Z,99.95
2018-11-06T02:42:06.593Z,99.99
2018-11-06T02:42:32.719Z,99.85
2018-11-06T02:42:58.899Z,99.99
2018-11-06T02:43:25.033Z,99.99
2018-11-06T02:43:51.164Z,99.95
2018-11-06T02:44:17.322Z,99.99
2018-11-06T02:44:43.473Z,99.99
2018-11-06T02:45:09.624Z,99.99
2018-11-06T02:45:35.775Z,99.99
2018-11-06T02:46:01.910Z,99.99
2018-11-06T02:46:28.040Z,99.99
2018-11-06T02:46:54.169Z,99.99
2018-11-06T02:47:20.302Z,99.99
2018-11-06T02:47:46.456Z,99.99
2018-11-06T02:48:12.612Z,99.99
2018-11-06T02:48:38.775Z,99.99
2018-11-06T02:49:04.934Z,99.99
2018-11-06T02:49:31.059Z,99.99
2018-11-06T02:49:57.228Z,99.99
2018-11-06T02:50:23.424Z,99.99
2018-11-06T02:50:49.561Z,99.99
2018-11-06T02:51:15.702Z,99.99
2018-11-06T02:51:41.831Z,99.99
2018-11-06T02:52:07.979Z,99.99
2018-11-06T02:52:34.183Z,99.99
2018-11-06T02:53:00.301Z,99.99
2018-11-06T02:53:26.455Z,99.99
2018-11-06T02:53:52.639Z,99.99
2018-11-06T02:54:18.792Z,99.99
2018-11-06T02:54:44.954Z,99.99
2018-11-06T02:55:11.103Z,99.99
2018-11-06T02:55:37.273Z,99.99
2018-11-06T02:56:03.537Z,99.99
2018-11-06T02:56:29.561Z,99.99
2018-11-06T02:56:55.726Z,99.99
2018-11-06T02:57:21.857Z,99.99
2018-11-06T02:57:47.991Z,99.99
2018-11-06T02:58:14.110Z,99.99
2018-11-06T02:58:40.267Z,99.99
2018-11-06T02:59:06.393Z,99.99
2018-11-06T02:59:32.526Z,99.99
2018-11-06T02:59:58.658Z,99.99
2018-11-06T03:00:24.817Z,99.99
2018-11-06T03:00:50.954Z,99.99
2018-11-06T03:01:17.110Z,99.99
2018-11-06T03:01:43.286Z,99.99
2018-11-06T03:02:09.422Z,99.99
2018-11-06T03:02:35.553Z,99.99
2018-11-06T03:03:01.692Z,99.99
2018-11-06T03:03:27.844Z,99.99
2018-11-06T03:03:53.972Z,99.99
2018-11-06T03:04:20.108Z,99.99
2018-11-06T03:04:46.241Z,99.99
2018-11-06T03:05:12.398Z,99.99
2018-11-06T03:05:38.556Z,99.99
2018-11-06T03:06:04.722Z,99.99
2018-11-06T03:06:30.867Z,99.99
2018-11-06T03:06:57.002Z,99.99
2018-11-06T03:07:23.162Z,99.99
2018-11-06T03:07:49.287Z,99.99
2018-11-06T03:08:15.448Z,99.99
2018-11-06T03:08:41.602Z,99.99
2018-11-06T03:09:07.729Z,99.99
2018-11-06T03:09:33.890Z,99.99
2018-11-06T03:10:00.046Z,99.99
2018-11-06T03:10:26.290Z,99.99
2018-11-06T03:10:52.371Z,99.99
2018-11-06T03:11:18.521Z,99.99
2018-11-06T03:11:44.648Z,99.99
2018-11-06T03:12:10.775Z,99.99
2018-11-06T03:12:36.903Z,99.99
2018-11-06T03:13:03.053Z,99.99
2018-11-06T03:13:29.180Z,99.99
2018-11-06T03:13:55.315Z,99.99
2018-11-06T03:14:21.491Z,99.99
2018-11-06T03:14:47.635Z,99.99
2018-11-06T03:15:13.777Z,99.99
2018-11-06T03:15:39.933Z,99.99
2018-11-06T03:16:06.089Z,99.99
2018-11-06T03:16:32.294Z,99.99
2018-11-06T03:16:58.545Z,99.99
2018-11-06T03:17:24.631Z,99.99
2018-11-06T03:17:50.785Z,99.99
2018-11-06T03:18:16.922Z,99.99
2018-11-06T03:18:43.080Z,99.99
2018-11-06T03:19:09.269Z,99.99
2018-11-06T03:19:35.397Z,99.99
2018-11-06T03:20:01.564Z,99.89
2018-11-06T03:20:27.705Z,99.99
2018-11-06T03:20:53.839Z,99.7
2018-11-06T03:21:19.996Z,99.51
2018-11-06T03:21:46.132Z,99.7
2018-11-06T03:22:12.288Z,99.8
2018-11-06T03:22:38.407Z,99.7
2018-11-06T03:23:04.583Z,99.7
2018-11-06T03:23:30.736Z,99.51
2018-11-06T03:23:56.873Z,99.51
2018-11-06T03:24:22.999Z,99.7
2018-11-06T03:24:49.137Z,99.32
2018-11-06T03:25:15.290Z,99.41
2018-11-06T03:25:41.443Z,98.85
2018-11-06T03:26:07.565Z,99.8
2018-11-06T03:26:33.725Z,99.8
2018-11-06T03:26:59.993Z,99.7
2018-11-06T03:27:26.066Z,99.32
2018-11-06T03:27:52.220Z,99.7
2018-11-06T03:28:18.400Z,98.85
2018-11-06T03:28:44.546Z,99.13
2018-11-06T03:29:10.674Z,99.13
2018-11-06T03:29:36.826Z,98.75
2018-11-06T03:30:02.968Z,98.75
2018-11-06T03:30:29.171Z,98.85
2018-11-06T03:30:55.363Z,98.85
2018-11-06T03:31:21.550Z,99.13
2018-11-06T03:31:47.724Z,99.41
2018-11-06T03:32:13.890Z,99.32
2018-11-06T03:32:40.021Z,99.6
2018-11-06T03:33:06.207Z,99.13
2018-11-06T03:33:32.367Z,98.75
2018-11-06T03:33:58.545Z,98.75
2018-11-06T03:34:24.701Z,98.65
2018-11-06T03:34:50.834Z,99.13
2018-11-06T03:35:16.969Z,99.32
2018-11-06T03:35:43.125Z,98.56
2018-11-06T03:36:09.255Z,99.04
2018-11-06T03:36:35.388Z,98.46
2018-11-06T03:37:01.521Z,98.18
2018-11-06T03:37:27.669Z,98.46
2018-11-06T03:37:53.825Z,98.36
2018-11-06T03:38:19.977Z,98.46
2018-11-06T03:38:46.137Z,98.75
2018-11-06T03:39:12.267Z,98.27
2018-11-06T03:39:38.397Z,98.36
2018-11-06T03:40:04.528Z,98.36
2018-11-06T03:40:30.688Z,98.36
2018-11-06T03:40:56.864Z,98.27
2018-11-06T03:41:23.046Z,98.56
2018-11-06T03:41:49.201Z,98.08
2018-11-06T03:42:15.353Z,97.99
2018-11-06T03:42:41.484Z,98.08
2018-11-06T03:43:07.646Z,98.08
2018-11-06T03:43:33.774Z,97.8
2018-11-06T03:43:59.904Z,98.46
2018-11-06T03:44:26.035Z,98.46
2018-11-06T03:44:52.171Z,98.27
2018-11-06T03:45:18.306Z,98.36
2018-11-06T03:45:44.460Z,98.65
2018-11-06T03:46:10.623Z,98.65
2018-11-06T03:46:36.799Z,98.65
2018-11-06T03:47:02.999Z,98.94
2018-11-06T03:47:29.129Z,98.75
2018-11-06T03:47:55.260Z,98.36
2018-11-06T03:48:21.399Z,98.85
2018-11-06T03:48:47.527Z,98.75
2018-11-06T03:49:13.664Z,98.46
2018-11-06T03:49:39.810Z,98.65
2018-11-06T03:50:05.938Z,99.04
2018-11-06T03:50:32.096Z,99.04
2018-11-06T03:50:58.224Z,99.6
2018-11-06T03:51:24.355Z,99.6
2018-11-06T03:51:50.489Z,99.6
2018-11-06T03:52:16.621Z,99.7
2018-11-06T03:52:42.775Z,99.7
2018-11-06T03:53:08.982Z,99.51
2018-11-06T03:53:35.134Z,99.65
2018-11-06T03:54:01.321Z,99.41
2018-11-06T03:54:27.475Z,99.7
2018-11-06T03:54:53.602Z,99.7
2018-11-06T03:55:19.736Z,99.8
2018-11-06T03:55:45.867Z,99.46
2018-11-06T03:56:12.000Z,99.65
2018-11-06T03:56:38.153Z,99.65
2018-11-06T03:57:04.280Z,99.99
2018-11-06T03:57:30.430Z,99.94
2018-11-06T03:57:56.562Z,99.99
2018-11-06T03:58:22.695Z,99.99
2018-11-06T03:58:48.836Z,99.99
2018-11-06T03:59:14.961Z,99.99
2018-11-06T03:59:41.113Z,99.99
2018-11-06T04:00:07.312Z,99.99
2018-11-06T04:00:33.477Z,99.99
2018-11-06T04:00:59.657Z,99.99
2018-11-06T04:01:25.816Z,99.99
2018-11-06T04:01:51.946Z,99.99
2018-11-06T04:02:18.100Z,99.99
2018-11-06T04:02:44.235Z,99.99
2018-11-06T04:03:10.376Z,99.99
2018-11-06T04:03:36.533Z,99.99
2018-11-06T04:04:02.690Z,99.99
2018-11-06T04:04:28.844Z,99.99
2018-11-06T04:04:54.971Z,99.99
2018-11-06T04:05:21.104Z,99.99
2018-11-06T04:05:47.260Z,99.99
2018-11-06T04:06:13.394Z,99.99
2018-11-06T04:06:39.602Z,99.99
2018-11-06T04:07:05.743Z,99.99
2018-11-06T04:07:31.915Z,99.99
2018-11-06T04:07:58.045Z,99.99
2018-11-06T04:08:24.205Z,99.99
2018-11-06T04:08:50.391Z,99.99
2018-11-06T04:09:16.525Z,99.99
2018-11-06T04:09:42.677Z,99.99
2018-11-06T04:10:08.830Z,99.99
2018-11-06T04:10:34.968Z,99.99
2018-11-06T04:11:01.104Z,99.99
2018-11-06T04:11:27.256Z,99.99
2018-11-06T04:11:53.429Z,99.99
2018-11-06T04:12:19.589Z,99.99
2018-11-06T04:12:45.746Z,99.99
2018-11-06T04:13:11.882Z,99.99
2018-11-06T04:13:38.013Z,99.99
2018-11-06T04:14:04.171Z,99.99
2018-11-06T04:14:30.326Z,99.99
2018-11-06T04:14:56.456Z,99.99
2018-11-06T04:15:22.615Z,99.99
2018-11-06T04:15:48.739Z,99.99
2018-11-06T04:16:14.874Z,99.99
2018-11-06T04:16:41.040Z,99.99
2018-11-06T04:17:07.199Z,99.99
2018-11-06T04:17:33.331Z,99.99
2018-11-06T04:17:59.459Z,99.99
2018-11-06T04:18:25.580Z,99.99
2018-11-06T04:18:51.715Z,99.99
2018-11-06T04:19:17.844Z,99.99
2018-11-06T04:19:44.025Z,99.99
2018-11-06T04:20:10.157Z,99.99
2018-11-06T04:20:36.314Z,99.99
2018-11-06T04:21:02.468Z,99.99
2018-11-06T04:21:28.598Z,99.99
2018-11-06T04:21:54.752Z,99.99
2018-11-06T04:22:20.881Z,99.99
2018-11-06T04:22:47.036Z,99.99
2018-11-06T04:23:13.191Z,99.99
2018-11-06T04:23:39.327Z,99.99
2018-11-06T04:24:05.502Z,99.99
2018-11-06T04:24:31.641Z,99.99
2018-11-06T04:24:57.771Z,99.99
2018-11-06T04:25:23.905Z,99.99
2018-11-06T04:25:50.057Z,99.99
2018-11-06T04:26:16.217Z,99.99
2018-11-06T04:26:42.357Z,99.99
2018-11-06T04:27:08.554Z,99.99
2018-11-06T04:27:34.676Z,99.99
2018-11-06T04:28:00.839Z,99.99
2018-11-06T04:28:27.014Z,99.99
2018-11-06T04:28:53.144Z,99.99
2018-11-06T04:29:19.307Z,99.99
2018-11-06T04:29:45.440Z,99.99
2018-11-06T04:30:11.653Z,99.99
2018-11-06T04:30:37.776Z,99.99
2018-11-06T04:31:03.904Z,99.99
2018-11-06T04:31:30.036Z,99.99
2018-11-06T04:31:56.174Z,99.99
2018-11-06T04:32:22.314Z,99.99
2018-11-06T04:32:48.463Z,99.99
2018-11-06T04:33:14.601Z,99.99
2018-11-06T04:33:40.759Z,99.99
2018-11-06T04:34:06.918Z,99.99
2018-11-06T04:34:33.155Z,99.99
2018-11-06T04:34:59.284Z,99.99
2018-11-06T04:35:25.406Z,99.99
2018-11-06T04:35:51.554Z,99.99
2018-11-06T04:36:17.708Z,99.99
2018-11-06T04:36:43.902Z,99.99
2018-11-06T04:37:10.035Z,99.99
2018-11-06T04:37:36.191Z,99.99
2018-11-06T04:38:02.360Z,99.99
2018-11-06T04:38:28.494Z,99.99
2018-11-06T04:38:54.622Z,99.99
2018-11-06T04:39:20.776Z,99.99
2018-11-06T04:39:46.917Z,99.99
2018-11-06T04:40:13.060Z,99.99
2018-11-06T04:40:39.222Z,99.99
2018-11-06T04:41:05.398Z,99.99
2018-11-06T04:41:31.531Z,99.99
2018-11-06T04:41:57.715Z,99.99
2018-11-06T04:42:23.869Z,99.99
2018-11-06T04:42:50.027Z,99.99
2018-11-06T04:43:16.186Z,99.99
2018-11-06T04:43:42.340Z,99.99
2018-11-06T04:44:08.470Z,99.99
2018-11-06T04:44:34.594Z,99.99
2018-11-06T04:45:00.731Z,99.99
2018-11-06T04:45:26.893Z,99.99
2018-11-06T04:45:53.018Z,99.99
2018-11-06T04:46:19.197Z,99.99
2018-11-06T04:46:45.376Z,99.99
2018-11-06T04:47:11.532Z,99.99
2018-11-06T04:47:37.738Z,99.99
2018-11-06T04:48:03.920Z,99.99
2018-11-06T04:48:30.074Z,99.99
2018-11-06T04:48:56.200Z,99.99
2018-11-06T04:49:22.984Z,99.99
2018-11-06T04:49:49.132Z,99.99
2018-11-06T04:50:15.573Z,99.99
2018-11-06T04:50:41.704Z,99.99
2018-11-06T04:51:07.861Z,99.99
2018-11-06T04:51:34.043Z,99.99
2018-11-06T04:52:00.199Z,99.99
2018-11-06T04:52:26.328Z,99.99
2018-11-06T04:52:52.461Z,99.99
2018-11-06T04:53:18.595Z,99.99
2018-11-06T04:53:44.724Z,99.99
2018-11-06T04:54:10.858Z,99.99
2018-11-06T04:54:37.020Z,99.99
2018-11-06T04:55:03.175Z,99.99
2018-11-06T04:55:29.281Z,99.99
2018-11-06T04:55:55.441Z,99.99
2018-11-06T04:56:21.567Z,99.99
2018-11-06T04:56:47.698Z,99.99
2018-11-06T04:57:13.892Z,99.99
2018-11-06T04:57:40.028Z,99.99
2018-11-06T04:58:06.180Z,99.99
2018-11-06T04:58:32.337Z,99.99
2018-11-06T04:58:58.485Z,99.99
2018-11-06T04:59:24.620Z,99.99
2018-11-06T04:59:50.749Z,99.99
2018-11-06T05:00:16.877Z,99.99
2018-11-06T05:00:43.010Z,99.99
2018-11-06T05:01:09.169Z,99.99
2018-11-06T05:01:35.300Z,99.99
2018-11-06T05:02:01.530Z,99.99
2018-11-06T05:02:27.579Z,99.99
2018-11-06T05:02:53.726Z,99.99
2018-11-06T05:03:19.860Z,99.99
2018-11-06T05:03:45.986Z,99.99
2018-11-06T05:04:12.118Z,99.99
2018-11-06T05:04:38.250Z,99.99
2018-11-06T05:05:04.382Z,99.99
2018-11-06T05:05:30.513Z,99.99
2018-11-06T05:05:56.675Z,99.99
2018-11-06T05:06:22.830Z,99.99
2018-11-06T05:06:49.052Z,99.99
2018-11-06T05:07:15.127Z,99.99
2018-11-06T05:07:41.261Z,99.99
2018-11-06T05:08:07.431Z,99.99
2018-11-06T05:08:33.609Z,99.99
2018-11-06T05:08:59.737Z,99.99
2018-11-06T05:09:25.876Z,99.99
2018-11-06T05:09:52.005Z,99.99
2018-11-06T05:10:18.155Z,99.99
2018-11-06T05:10:44.289Z,99.99
2018-11-06T05:11:10.420Z,99.99
2018-11-06T05:11:36.586Z,99.99
2018-11-06T05:12:02.754Z,99.99
2018-11-06T05:12:28.877Z,99.99
2018-11-06T05:12:55.009Z,99.99
2018-11-06T05:13:21.143Z,99.99
2018-11-06T05:13:47.284Z,99.99
2018-11-06T05:14:13.451Z,99.99
2018-11-06T05:14:39.560Z,99.99
2018-11-06T05:15:05.687Z,99.99
2018-11-06T05:15:31.826Z,99.99
2018-11-06T05:15:57.955Z,99.99
2018-11-06T05:16:24.093Z,99.99
2018-11-06T05:16:50.228Z,99.99
2018-11-06T05:17:16.382Z,99.99
2018-11-06T05:17:42.557Z,99.99
2018-11-06T05:18:08.685Z,99.99
2018-11-06T05:18:34.811Z,99.99
2018-11-06T05:19:00.945Z,99.99
2018-11-06T05:19:27.087Z,99.99
2018-11-06T05:19:53.216Z,99.99
2018-11-06T05:20:19.348Z,99.99
2018-11-06T05:20:45.480Z,99.99
2018-11-06T05:21:11.610Z,99.99
2018-11-06T05:21:37.771Z,99.99
2018-11-06T05:22:03.921Z,99.99
2018-11-06T05:22:30.060Z,99.99
2018-11-06T05:22:56.193Z,99.99
2018-11-06T05:23:22.328Z,99.99
2018-11-06T05:23:48.483Z,99.99
2018-11-06T05:24:14.640Z,99.99
2018-11-06T05:24:40.770Z,99.99
2018-11-06T05:25:06.905Z,99.99
2018-11-06T05:25:33.181Z,99.99
2018-11-06T05:25:59.203Z,99.99
2018-11-06T05:26:25.361Z,99.99
2018-11-06T05:26:51.488Z,99.99
2018-11-06T05:27:17.648Z,99.99
2018-11-06T05:27:43.776Z,99.99
2018-11-06T05:28:09.927Z,99.99
2018-11-06T05:28:36.077Z,99.99
2018-11-06T05:29:02.235Z,99.99
2018-11-06T05:29:28.360Z,99.99
2018-11-06T05:29:54.492Z,99.99
2018-11-06T05:30:20.631Z,99.99
2018-11-06T05:30:46.788Z,99.99
2018-11-06T05:31:12.942Z,99.99
2018-11-06T05:31:39.067Z,99.99
2018-11-06T05:32:05.205Z,99.99
2018-11-06T05:32:31.340Z,99.99
2018-11-06T05:32:57.513Z,99.99
2018-11-06T05:33:23.650Z,99.99
2018-11-06T05:33:49.792Z,99.99
2018-11-06T05:34:15.921Z,99.99
2018-11-06T05:34:42.058Z,99.99
2018-11-06T05:35:08.211Z,99.99
2018-11-06T05:35:34.339Z,99.99
2018-11-06T05:36:00.497Z,99.99
2018-11-06T05:36:26.647Z,99.99
2018-11-06T05:36:52.771Z,99.99
2018-11-06T05:37:18.902Z,99.99